map of KKJ home
KKJ - Airport
Location
City:  Kitakyushu, Fukuoka, Japan
Near (Alt.):Kokura
Name:Kitakyushu Airport
Old (Alt.):New Kitakyushu Airport
ICAO:RJFR
IATA:KKJ

Details
Type:Airport (Aerodrome, Airfield)
Latitude:33°50'45"N (33.845942)
Longitude:131°02'05"E (131.034689)
Datum:WGS 1984
Elevation:21 ft (6 m)
Variation:7.62°W (WMM2015 magnetic declination)
-0.07° annual change
Runways:1
Longest:8202 × 260 ft (2500 × 79 m), paved

Time
Time Zone:UTC+9
Local Time:

Weather
METAR:RJFR 180500Z 32013KT 9999 FEW040 11/M01 Q1024
TAF:RJFR 172314Z 1800/1906 25008KT 9999 FEW030 SCT040
BECMG 1800/1802 29009KT
BECMG 1810/1812 25006KT

Related Locations
Nearby:
Farthest:SJRG: 12218 mi / 19663 km
Río Grande [Regional de Río Grande], RS, BR

Find:

   beyond  
but within

Other Information
Maps:
NOTAMs:
Links:
Sources:

  
  • flag of Japan
  • flag of Fukuoka
  • flag of Kitakyushu
  

Sectional Chart

Flight Planning
at skyvector.com

Satellite Image

Google Maps Satellite view

 

Copyright © 2004-2019 Karl L. Swartz. All rights reserved.
The Great Circle Mapper name and logo are trademarks of the Great Circle Mapper.
All other trademarks mentioned herein belong to their respective owners.
Please see credits for attibutions and further copyright information.

  Follow gcmap on Facebook Follow gcmap on Twitter Follow gcmap on Google+ GCmap on LinkedIn

hCard Microformat

Geo Microformat